Time;durP1;ratioP1;P1;durP2;ratioP2;P2;SDS_P1;SDS_P2;PMS_P1;PMS_P2;Temp;Humidity;BMP_temperature;BMP_pressure;BME280_temperature;BME280_humidity;BME280_pressure;Samples;Min_cycle;Max_cycle;Signal;HPM_P1;HPM_P2
2023/10/20 00:00:51;;;;;;;234.02;22.58;;;;;;;;;;4899642;29;20107;-56
2023/10/20 00:03:17;;;;;;;248.45;23.70;;;;;;;;;;4898696;29;20028;-56
2023/10/20 00:05:42;;;;;;;178.15;27.02;;;;;;;;;;4898825;28;20050;-56
2023/10/20 00:08:07;;;;;;;214.18;23.63;;;;;;;;;;4899151;29;20020;-55
2023/10/20 00:10:36;;;;;;;218.75;23.45;;;;;;;;;;4897921;29;20075;-56
2023/10/20 00:13:02;;;;;;;182.15;25.05;;;;;;;;;;4899094;29;20040;-57
2023/10/20 00:15:28;;;;;;;217.77;23.88;;;;;;;;;;4896764;28;20256;-56
2023/10/20 00:17:53;;;;;;;228.27;24.15;;;;;;;;;;4898923;29;20025;-58
2023/10/20 00:20:19;;;;;;;261.48;27.48;;;;;;;;;;4897937;29;20035;-58
2023/10/20 00:22:44;;;;;;;208.63;24.17;;;;;;;;;;4899879;29;20539;-57
2023/10/20 00:25:12;;;;;;;245.37;26.57;;;;;;;;;;4897819;29;20099;-58
2023/10/20 00:27:38;;;;;;;211.38;26.58;;;;;;;;;;4898767;29;20257;-58
2023/10/20 00:30:04;;;;;;;207.70;25.63;;;;;;;;;;4898533;29;20028;-57
2023/10/20 00:32:30;;;;;;;309.50;30.10;;;;;;;;;;4896566;29;20048;-56
2023/10/20 00:34:56;;;;;;;205.65;25.17;;;;;;;;;;4898174;29;20238;-57
2023/10/20 00:37:21;;;;;;;225.27;26.10;;;;;;;;;;4896730;29;20043;-56
2023/10/20 00:39:46;;;;;;;217.18;25.88;;;;;;;;;;4899589;29;20425;-55
2023/10/20 00:42:12;;;;;;;244.50;27.03;;;;;;;;;;4898592;29;20032;-57
2023/10/20 00:44:38;;;;;;;189.23;25.13;;;;;;;;;;4898100;29;20258;-56
2023/10/20 00:47:04;;;;;;;167.70;23.42;;;;;;;;;;4899444;29;20075;-57
2023/10/20 00:49:29;;;;;;;238.85;27.35;;;;;;;;;;4898182;29;20341;-56
2023/10/20 00:51:54;;;;;;;213.85;26.75;;;;;;;;;;4897810;29;20039;-57
2023/10/20 00:54:20;;;;;;;252.37;33.60;;;;;;;;;;4896945;29;20191;-57
2023/10/20 00:56:46;;;;;;;199.40;25.30;;;;;;;;;;4898437;29;20265;-58
2023/10/20 00:59:11;;;;;;;200.05;25.67;;;;;;;;;;4897391;29;20494;-56
2023/10/20 01:01:37;;;;;;;172.15;24.30;;;;;;;;;;4898068;29;20408;-58
2023/10/20 01:04:02;;;;;;;204.35;27.35;;;;;;;;;;4897110;29;20040;-57
2023/10/20 01:06:28;;;;;;;246.32;28.80;;;;;;;;;;4897606;29;20059;-58
2023/10/20 01:08:57;;;;;;;170.32;24.98;;;;;;;;;;4899828;29;20396;-54
2023/10/20 01:11:22;;;;;;;335.15;30.63;;;;;;;;;;4899975;29;20521;-55
2023/10/20 01:13:47;;;;;;;231.27;27.50;;;;;;;;;;4902818;29;20507;-55
2023/10/20 01:16:12;;;;;;;241.95;27.85;;;;;;;;;;4900711;29;20113;-54
2023/10/20 01:18:38;;;;;;;201.77;24.42;;;;;;;;;;4901783;29;20016;-55
2023/10/20 01:21:04;;;;;;;228.15;24.35;;;;;;;;;;4899991;29;20039;-56
2023/10/20 01:23:29;;;;;;;243.85;27.38;;;;;;;;;;4901194;29;20156;-54
2023/10/20 01:25:56;;;;;;;237.35;24.65;;;;;;;;;;4900504;29;20036;-55
2023/10/20 01:28:21;;;;;;;243.07;25.55;;;;;;;;;;4899793;29;20062;-55
2023/10/20 01:30:47;;;;;;;214.18;24.00;;;;;;;;;;4901896;29;20076;-55
2023/10/20 01:33:12;;;;;;;203.90;24.52;;;;;;;;;;4901708;29;20268;-54
2023/10/20 01:35:38;;;;;;;197.05;23.10;;;;;;;;;;4900387;28;20047;-55
2023/10/20 01:38:03;;;;;;;206.87;23.90;;;;;;;;;;4902174;29;20008;-56
2023/10/20 01:40:29;;;;;;;237.70;27.95;;;;;;;;;;4899900;29;20656;-53
2023/10/20 01:42:55;;;;;;;227.75;25.52;;;;;;;;;;4901830;29;20400;-55
2023/10/20 01:45:20;;;;;;;269.20;26.23;;;;;;;;;;4899094;29;20586;-55
2023/10/20 01:47:45;;;;;;;213.70;26.10;;;;;;;;;;4900764;29;20605;-55
2023/10/20 01:50:12;;;;;;;234.03;26.67;;;;;;;;;;4897657;29;20276;-55
2023/10/20 01:52:37;;;;;;;217.73;26.67;;;;;;;;;;4899677;29;20267;-55
2023/10/20 01:55:03;;;;;;;168.82;22.38;;;;;;;;;;4901150;29;20387;-56
2023/10/20 01:57:28;;;;;;;260.23;27.58;;;;;;;;;;4899891;29;20036;-54
2023/10/20 01:59:53;;;;;;;207.32;25.70;;;;;;;;;;4901242;29;20768;-54
2023/10/20 02:02:18;;;;;;;191.95;26.25;;;;;;;;;;4899646;29;20028;-55
2023/10/20 02:04:44;;;;;;;207.20;26.23;;;;;;;;;;4901662;29;20504;-54
2023/10/20 02:07:10;;;;;;;252.63;27.52;;;;;;;;;;4898635;29;20684;-55
2023/10/20 02:09:35;;;;;;;222.80;26.33;;;;;;;;;;4900188;29;20028;-56
2023/10/20 02:12:00;;;;;;;197.47;26.07;;;;;;;;;;4900339;28;20497;-55
2023/10/20 02:14:25;;;;;;;296.38;28.85;;;;;;;;;;4900151;29;20655;-57
2023/10/20 02:16:51;;;;;;;171.73;25.27;;;;;;;;;;4900132;29;20084;-54
2023/10/20 02:19:16;;;;;;;185.23;25.65;;;;;;;;;;4902215;29;20123;-55
2023/10/20 02:21:42;;;;;;;212.35;27.42;;;;;;;;;;4898953;29;20397;-55
2023/10/20 02:24:07;;;;;;;242.68;27.65;;;;;;;;;;4899951;29;20024;-56
2023/10/20 02:26:33;;;;;;;233.65;28.10;;;;;;;;;;4898429;29;20376;-55
2023/10/20 02:28:58;;;;;;;208.57;26.70;;;;;;;;;;4901294;29;20099;-55
2023/10/20 02:31:23;;;;;;;226.50;25.63;;;;;;;;;;4900404;29;20220;-55
2023/10/20 02:33:49;;;;;;;216.18;26.25;;;;;;;;;;4902305;29;20342;-56
2023/10/20 02:36:18;;;;;;;205.52;25.63;;;;;;;;;;4901112;29;20452;-56
2023/10/20 02:38:43;;;;;;;224.85;26.98;;;;;;;;;;4902001;29;20040;-54
2023/10/20 02:41:09;;;;;;;181.23;22.60;;;;;;;;;;4902420;29;20356;-54
2023/10/20 02:43:34;;;;;;;250.00;27.65;;;;;;;;;;4901731;29;20020;-55
2023/10/20 02:45:59;;;;;;;215.57;25.27;;;;;;;;;;4901246;29;20044;-56
2023/10/20 02:48:26;;;;;;;184.82;26.38;;;;;;;;;;4901197;29;20035;-56
2023/10/20 02:50:51;;;;;;;184.25;24.35;;;;;;;;;;4901568;29;20482;-56
2023/10/20 02:53:17;;;;;;;203.00;27.40;;;;;;;;;;4901830;29;20048;-55
2023/10/20 02:55:43;;;;;;;206.00;27.02;;;;;;;;;;4900692;29;20047;-56
2023/10/20 02:58:12;;;;;;;174.32;25.75;;;;;;;;;;4902563;29;20012;-56
2023/10/20 03:00:41;;;;;;;268.48;28.02;;;;;;;;;;4900153;29;20036;-56
2023/10/20 03:03:08;;;;;;;203.85;24.20;;;;;;;;;;4901357;29;20028;-56
2023/10/20 03:05:33;;;;;;;236.13;28.55;;;;;;;;;;4899719;29;20034;-54
2023/10/20 03:07:58;;;;;;;141.27;22.03;;;;;;;;;;4901697;29;20071;-53
2023/10/20 03:10:24;;;;;;;199.23;24.52;;;;;;;;;;4899208;29;20339;-55
2023/10/20 03:12:49;;;;;;;210.45;24.85;;;;;;;;;;4901633;29;20024;-54
2023/10/20 03:15:15;;;;;;;198.48;26.20;;;;;;;;;;4899056;29;20086;-55
2023/10/20 03:17:40;;;;;;;244.68;25.40;;;;;;;;;;4901464;29;20012;-55
2023/10/20 03:20:09;;;;;;;243.30;29.80;;;;;;;;;;4900988;29;20071;-54
2023/10/20 03:22:34;;;;;;;191.80;25.02;;;;;;;;;;4899629;29;20480;-56
2023/10/20 03:25:02;;;;;;;152.35;22.63;;;;;;;;;;4900680;29;20043;-54
2023/10/20 03:27:27;;;;;;;235.10;28.58;;;;;;;;;;4898702;29;20075;-54
2023/10/20 03:29:53;;;;;;;195.70;25.35;;;;;;;;;;4900625;29;20067;-55
2023/10/20 03:32:18;;;;;;;159.43;25.08;;;;;;;;;;4900438;29;20032;-54
2023/10/20 03:34:43;;;;;;;206.77;25.67;;;;;;;;;;4898939;29;20032;-54
2023/10/20 03:37:09;;;;;;;199.37;26.17;;;;;;;;;;4900690;29;20040;-56
2023/10/20 03:39:34;;;;;;;198.77;25.37;;;;;;;;;;4900813;29;20259;-56
2023/10/20 03:42:02;;;;;;;192.95;24.83;;;;;;;;;;4900519;29;20356;-56
2023/10/20 03:44:27;;;;;;;203.60;23.17;;;;;;;;;;4899130;29;20389;-55
2023/10/20 03:46:56;;;;;;;182.95;27.50;;;;;;;;;;4899243;29;20544;-56
2023/10/20 03:49:22;;;;;;;159.75;24.23;;;;;;;;;;4901076;29;20662;-56
2023/10/20 03:51:50;;;;;;;205.90;29.75;;;;;;;;;;4898899;29;20050;-57
2023/10/20 03:54:18;;;;;;;267.08;76.65;;;;;;;;;;4900613;29;20024;-56
2023/10/20 03:56:44;;;;;;;162.90;24.58;;;;;;;;;;4898476;29;20040;-56
2023/10/20 03:59:09;;;;;;;141.18;25.30;;;;;;;;;;4900127;29;20032;-55
2023/10/20 04:01:35;;;;;;;288.73;29.42;;;;;;;;;;4898146;29;20084;-56
2023/10/20 04:04:00;;;;;;;189.85;26.75;;;;;;;;;;4899954;29;20042;-56
2023/10/20 04:06:26;;;;;;;178.23;25.00;;;;;;;;;;4898122;29;20417;-56
2023/10/20 04:08:51;;;;;;;171.98;30.83;;;;;;;;;;4899526;29;20135;-56
2023/10/20 04:11:17;;;;;;;381.05;124.22;;;;;;;;;;4900431;29;20470;-55
2023/10/20 04:13:42;;;;;;;284.40;29.65;;;;;;;;;;4899441;29;20111;-56
2023/10/20 04:16:13;;;;;;;216.13;48.67;;;;;;;;;;4899844;29;20044;-55
2023/10/20 04:18:39;;;;;;;271.65;28.58;;;;;;;;;;4899038;29;20591;-54
2023/10/20 04:21:05;;;;;;;159.48;26.00;;;;;;;;;;4899945;29;20179;-55
2023/10/20 04:23:30;;;;;;;265.30;29.58;;;;;;;;;;4897887;29;20376;-55
2023/10/20 04:25:55;;;;;;;201.77;26.27;;;;;;;;;;4897832;29;20036;-56
2023/10/20 04:28:28;;;;;;;141.55;24.30;;;;;;;;;;4900137;29;20492;-56
2023/10/20 04:41:56;;;;;;;187.35;26.42;;;;;;;;;;4896686;29;20040;-54
2023/10/20 04:54:51;;;;;;;306.13;29.15;;;;;;;;;;4899679;29;20038;-56
2023/10/20 04:59:59;;;;;;;;;;;;;;;;;;4899177;29;20036;-55
2023/10/20 05:02:33;;;;;;;176.98;28.33;;;;;;;;;;4898875;29;20856;-55
2023/10/20 05:05:01;;;;;;;206.40;23.23;;;;;;;;;;4899618;29;20597;-55
2023/10/20 05:07:28;;;;;;;310.00;110.38;;;;;;;;;;4898745;29;20146;-56
2023/10/20 05:09:54;;;;;;;191.25;25.20;;;;;;;;;;4898563;29;20496;-55
2023/10/20 05:12:20;;;;;;;163.18;21.52;;;;;;;;;;4899542;29;20047;-57
2023/10/20 05:14:46;;;;;;;203.82;24.13;;;;;;;;;;4894950;29;20075;-57
2023/10/20 05:17:14;;;;;;;215.90;24.00;;;;;;;;;;4898545;29;20032;-56
2023/10/20 05:19:40;;;;;;;206.68;22.17;;;;;;;;;;4897797;29;20032;-56
2023/10/20 05:22:05;;;;;;;279.60;108.82;;;;;;;;;;4899146;28;20650;-55
2023/10/20 05:24:31;;;;;;;165.87;21.33;;;;;;;;;;4898180;29;20047;-54
2023/10/20 05:26:56;;;;;;;202.82;22.88;;;;;;;;;;4898763;29;20284;-55
2023/10/20 05:29:21;;;;;;;180.85;22.65;;;;;;;;;;4899178;29;20024;-55
2023/10/20 05:31:47;;;;;;;237.73;24.90;;;;;;;;;;4896906;29;20449;-56
2023/10/20 05:34:13;;;;;;;203.18;19.95;;;;;;;;;;4899235;29;20819;-56
2023/10/20 05:36:38;;;;;;;246.32;26.23;;;;;;;;;;4899709;29;20020;-56
2023/10/20 05:39:04;;;;;;;173.20;20.52;;;;;;;;;;4899219;29;20079;-56
2023/10/20 05:41:29;;;;;;;183.57;20.20;;;;;;;;;;4898887;29;20037;-58
2023/10/20 05:43:55;;;;;;;169.15;17.85;;;;;;;;;;4898855;29;20028;-55
2023/10/20 05:46:21;;;;;;;157.10;20.02;;;;;;;;;;4897878;29;20040;-56
2023/10/20 05:48:46;;;;;;;257.10;24.52;;;;;;;;;;4897914;29;20024;-56
2023/10/20 05:51:12;;;;;;;159.63;20.10;;;;;;;;;;4898948;29;20046;-57
2023/10/20 05:53:37;;;;;;;223.00;21.15;;;;;;;;;;4899021;29;20020;-56
2023/10/20 05:56:03;;;;;;;194.45;20.13;;;;;;;;;;4901781;29;20044;-57
2023/10/20 05:58:30;;;;;;;118.05;17.83;;;;;;;;;;4903425;29;20390;-57
2023/10/20 06:00:55;;;;;;;161.57;21.15;;;;;;;;;;4901250;29;20206;-57
2023/10/20 06:03:20;;;;;;;191.10;22.05;;;;;;;;;;4902857;29;20071;-56
2023/10/20 06:05:45;;;;;;;241.00;22.67;;;;;;;;;;4898939;29;20279;-55
2023/10/20 06:08:11;;;;;;;205.43;22.47;;;;;;;;;;4901669;29;20389;-57
2023/10/20 06:10:36;;;;;;;235.27;23.23;;;;;;;;;;4900561;29;20861;-55
2023/10/20 06:13:03;;;;;;;169.43;19.35;;;;;;;;;;4903094;29;20604;-57
2023/10/20 06:15:29;;;;;;;184.15;24.88;;;;;;;;;;4900411;29;20169;-56
2023/10/20 06:17:54;;;;;;;142.43;18.67;;;;;;;;;;4902125;29;20127;-56
2023/10/20 06:20:19;;;;;;;222.07;21.55;;;;;;;;;;4900947;29;20035;-56
2023/10/20 06:22:45;;;;;;;232.88;20.75;;;;;;;;;;4901048;29;20085;-55
2023/10/20 06:25:13;;;;;;;170.13;21.55;;;;;;;;;;4900969;28;20016;-56
2023/10/20 06:27:42;;;;;;;343.90;48.05;;;;;;;;;;4900113;29;20579;-57
2023/10/20 06:30:14;;;;;;;222.30;24.30;;;;;;;;;;4901639;29;20055;-56
2023/10/20 06:32:42;;;;;;;;;;;;;;;;;;4900577;29;20127;-57
2023/10/20 06:35:09;;;;;;;191.02;20.75;;;;;;;;;;4902484;29;20473;-57
2023/10/20 06:37:42;;;;;;;161.75;19.08;;;;;;;;;;4901660;29;20609;-56
2023/10/20 06:40:07;;;;;;;217.73;19.15;;;;;;;;;;4900939;29;20103;-56
2023/10/20 06:42:33;;;;;;;184.40;23.30;;;;;;;;;;4902664;29;20163;-54
2023/10/20 06:45:01;;;;;;;128.68;18.55;;;;;;;;;;4900958;29;20044;-57
2023/10/20 06:47:26;;;;;;;175.63;21.58;;;;;;;;;;4901268;29;20039;-56
2023/10/20 06:49:52;;;;;;;372.55;66.82;;;;;;;;;;4901059;29;20032;-55
2023/10/20 06:52:17;;;;;;;185.75;23.45;;;;;;;;;;4902033;29;20482;-57
2023/10/20 06:54:46;;;;;;;259.25;26.52;;;;;;;;;;4901051;29;20118;-57
2023/10/20 06:57:11;;;;;;;199.88;19.60;;;;;;;;;;4901480;29;20489;-57
2023/10/20 06:59:36;;;;;;;159.95;15.40;;;;;;;;;;4901317;29;20028;-55
2023/10/20 07:02:02;;;;;;;154.67;17.33;;;;;;;;;;4896402;29;20032;-56
2023/10/20 07:04:27;;;;;;;124.55;21.55;;;;;;;;;;4904278;29;20512;-55
2023/10/20 07:06:53;;;;;;;260.60;31.75;;;;;;;;;;4902798;29;20059;-56
2023/10/20 07:09:18;;;;;;;149.82;23.05;;;;;;;;;;4903815;29;20977;-56
2023/10/20 07:11:44;;;;;;;499.23;163.30;;;;;;;;;;4903934;29;20044;-57
2023/10/20 07:14:13;;;;;;;183.02;25.08;;;;;;;;;;4904465;29;20024;-56
2023/10/20 07:16:39;;;;;;;307.10;90.10;;;;;;;;;;4903275;29;20040;-57
2023/10/20 07:19:04;;;;;;;138.55;22.60;;;;;;;;;;4905349;29;20441;-57
2023/10/20 07:21:30;;;;;;;176.90;23.40;;;;;;;;;;4904224;29;20039;-57
2023/10/20 07:23:55;;;;;;;314.58;37.58;;;;;;;;;;4903635;29;20036;-55
2023/10/20 07:26:20;;;;;;;150.13;25.50;;;;;;;;;;4904480;29;20035;-56
2023/10/20 07:28:46;;;;;;;231.27;26.88;;;;;;;;;;4903448;29;20548;-56
2023/10/20 07:31:15;;;;;;;716.10;294.58;;;;;;;;;;4905598;29;20116;-57
2023/10/20 07:33:40;;;;;;;206.48;26.88;;;;;;;;;;4904318;29;20028;-56
2023/10/20 07:36:06;;;;;;;165.52;28.45;;;;;;;;;;4904397;29;20445;-57
2023/10/20 07:38:31;;;;;;;164.20;24.13;;;;;;;;;;4904456;29;20091;-57
2023/10/20 07:41:02;;;;;;;154.02;21.08;;;;;;;;;;4901314;29;21888;-57
2023/10/20 07:43:27;;;;;;;135.95;25.02;;;;;;;;;;4905003;29;20032;-58
2023/10/20 07:45:52;;;;;;;204.70;26.17;;;;;;;;;;4902663;28;20376;-57
2023/10/20 07:48:18;;;;;;;170.52;23.38;;;;;;;;;;4904650;29;20253;-58
2023/10/20 07:50:43;;;;;;;180.80;25.00;;;;;;;;;;4903727;29;20131;-58
2023/10/20 07:53:09;;;;;;;148.27;22.85;;;;;;;;;;4904658;29;20020;-58
2023/10/20 07:55:34;;;;;;;148.85;20.80;;;;;;;;;;4903839;29;20044;-58
2023/10/20 07:57:59;;;;;;;130.85;23.58;;;;;;;;;;4903612;29;20020;-57
2023/10/20 08:00:24;;;;;;;109.43;22.40;;;;;;;;;;4904100;29;20031;-57
2023/10/20 08:02:50;;;;;;;265.40;28.50;;;;;;;;;;4903258;29;20283;-57
2023/10/20 08:05:16;;;;;;;141.15;17.70;;;;;;;;;;4904601;29;20805;-58
2023/10/20 08:07:42;;;;;;;156.70;21.35;;;;;;;;;;4903694;29;20539;-58
2023/10/20 08:10:07;;;;;;;195.20;23.23;;;;;;;;;;4903775;29;20021;-57
2023/10/20 08:12:33;;;;;;;291.17;122.78;;;;;;;;;;4905602;29;20035;-59
2023/10/20 08:14:58;;;;;;;123.70;15.48;;;;;;;;;;4902997;29;20040;-58
2023/10/20 08:17:23;;;;;;;146.27;20.25;;;;;;;;;;4902926;29;20043;-58
2023/10/20 08:19:49;;;;;;;204.85;24.38;;;;;;;;;;4901880;29;20492;-58
2023/10/20 08:22:14;;;;;;;150.68;20.77;;;;;;;;;;4902838;29;20428;-57
2023/10/20 08:24:40;;;;;;;139.15;19.85;;;;;;;;;;4903824;29;20074;-56
2023/10/20 08:27:05;;;;;;;107.05;17.42;;;;;;;;;;4902817;29;20500;-58
2023/10/20 08:29:31;;;;;;;102.68;17.25;;;;;;;;;;4904868;29;20066;-57
2023/10/20 08:31:56;;;;;;;229.18;24.67;;;;;;;;;;4902709;29;20107;-58
2023/10/20 08:34:22;;;;;;;101.60;15.75;;;;;;;;;;4903236;29;20404;-56
2023/10/20 08:36:47;;;;;;;239.18;24.75;;;;;;;;;;4902575;29;20253;-57
2023/10/20 08:39:13;;;;;;;150.07;19.60;;;;;;;;;;4903335;29;20027;-57
2023/10/20 08:41:40;;;;;;;122.93;16.88;;;;;;;;;;4903358;29;20075;-58
2023/10/20 08:44:05;;;;;;;142.95;19.25;;;;;;;;;;4901464;29;20028;-56
2023/10/20 08:46:31;;;;;;;129.50;16.52;;;;;;;;;;4902671;29;20043;-57
2023/10/20 08:48:57;;;;;;;211.88;24.23;;;;;;;;;;4901986;29;20022;-56
2023/10/20 08:51:23;;;;;;;114.63;16.30;;;;;;;;;;4903677;29;20052;-57
2023/10/20 08:53:48;;;;;;;240.05;20.80;;;;;;;;;;4902072;29;20064;-56
2023/10/20 08:56:14;;;;;;;136.75;17.05;;;;;;;;;;4903130;29;20088;-58
2023/10/20 08:58:39;;;;;;;310.17;110.65;;;;;;;;;;4903469;29;20031;-56
2023/10/20 09:01:08;;;;;;;112.90;18.38;;;;;;;;;;4900944;29;20139;-58
2023/10/20 09:03:40;;;;;;;131.95;18.67;;;;;;;;;;4903602;29;20492;-58
2023/10/20 09:06:06;;;;;;;130.32;13.70;;;;;;;;;;4901189;29;20044;-58
2023/10/20 09:08:32;;;;;;;103.03;18.17;;;;;;;;;;4903676;29;20025;-56
2023/10/20 09:10:57;;;;;;;151.98;20.75;;;;;;;;;;4903076;29;20118;-57
2023/10/20 09:13:29;;;;;;;190.02;30.63;;;;;;;;;;4903874;29;20026;-58
2023/10/20 09:15:55;;;;;;;222.98;24.13;;;;;;;;;;4901660;29;20041;-57
2023/10/20 09:18:22;;;;;;;105.53;18.42;;;;;;;;;;4903161;29;20392;-58
2023/10/20 09:20:47;;;;;;;197.73;32.08;;;;;;;;;;4900592;29;20512;-58
2023/10/20 09:23:12;;;;;;;285.90;91.47;;;;;;;;;;4903059;29;20012;-58
2023/10/20 09:25:37;;;;;;;143.50;38.37;;;;;;;;;;4902344;29;20032;-58
2023/10/20 09:28:03;;;;;;;105.23;18.73;;;;;;;;;;4903008;29;20641;-58
2023/10/20 09:30:28;;;;;;;134.43;19.83;;;;;;;;;;4904849;29;20260;-58
2023/10/20 09:32:54;;;;;;;213.10;23.98;;;;;;;;;;4906369;29;20040;-57
2023/10/20 09:35:19;;;;;;;143.65;25.98;;;;;;;;;;4906057;29;20078;-56
2023/10/20 09:37:49;;;;;;;171.98;55.90;;;;;;;;;;4904779;29;20028;-57
2023/10/20 09:40:14;;;;;;;305.23;73.22;;;;;;;;;;4905287;29;20469;-56
2023/10/20 09:42:43;;;;;;;365.55;125.05;;;;;;;;;;4904621;29;20035;-57
2023/10/20 09:45:14;;;;;;;135.68;15.18;;;;;;;;;;4903559;29;20062;-58
2023/10/20 09:47:42;;;;;;;337.30;125.25;;;;;;;;;;4907569;29;20035;-57
2023/10/20 09:50:11;;;;;;;151.18;27.75;;;;;;;;;;4905264;29;20032;-58
2023/10/20 09:52:37;;;;;;;154.75;52.17;;;;;;;;;;4908049;29;20473;-58
2023/10/20 09:55:03;;;;;;;157.70;21.65;;;;;;;;;;4904987;29;20047;-56
2023/10/20 09:57:28;;;;;;;142.82;28.85;;;;;;;;;;4905682;29;20070;-58
2023/10/20 09:59:53;;;;;;;166.27;18.42;;;;;;;;;;4905244;29;20100;-58
2023/10/20 10:02:29;;;;;;;112.47;16.63;;;;;;;;;;4905612;29;20079;-57
2023/10/20 10:04:56;;;;;;;186.50;26.65;;;;;;;;;;4904051;29;20474;-58
2023/10/20 10:07:34;;;;;;;230.60;41.72;;;;;;;;;;4905552;29;20029;-57
2023/10/20 10:09:59;;;;;;;166.30;16.85;;;;;;;;;;4905713;29;20821;-57
2023/10/20 10:12:28;;;;;;;134.00;19.92;;;;;;;;;;4905814;29;20068;-58
2023/10/20 10:15:13;;;;;;;134.55;15.90;;;;;;;;;;4904842;29;20070;-58
2023/10/20 10:18:02;;;;;;;246.50;102.15;;;;;;;;;;4906072;29;20040;-57
2023/10/20 10:20:28;;;;;;;117.60;16.90;;;;;;;;;;4904849;29;20040;-58
2023/10/20 10:23:19;;;;;;;225.82;15.27;;;;;;;;;;4904341;29;20016;-58
2023/10/20 10:25:46;;;;;;;218.18;49.40;;;;;;;;;;4904736;29;20076;-58
2023/10/20 10:28:11;;;;;;;169.02;47.60;;;;;;;;;;4903248;29;20381;-58
2023/10/20 10:30:37;;;;;;;139.73;17.25;;;;;;;;;;4905678;29;20493;-58
2023/10/20 10:33:03;;;;;;;786.72;298.30;;;;;;;;;;4904021;29;20517;-58
2023/10/20 10:35:29;;;;;;;295.00;106.70;;;;;;;;;;4904509;29;20131;-58
2023/10/20 10:37:54;;;;;;;243.90;21.27;;;;;;;;;;4904457;29;20036;-58
2023/10/20 10:40:22;;;;;;;186.82;33.60;;;;;;;;;;4903483;29;20385;-58
2023/10/20 10:42:51;;;;;;;94.18;15.50;;;;;;;;;;4905659;29;20024;-58
2023/10/20 10:45:23;;;;;;;217.90;41.42;;;;;;;;;;4904336;29;20044;-58
2023/10/20 10:47:49;;;;;;;131.85;16.02;;;;;;;;;;4905425;29;20111;-59
2023/10/20 10:50:20;;;;;;;154.40;17.10;;;;;;;;;;4904518;29;20103;-59
2023/10/20 10:52:45;;;;;;;106.65;15.50;;;;;;;;;;4904929;29;20035;-58
2023/10/20 10:55:10;;;;;;;120.55;15.13;;;;;;;;;;4903224;29;20294;-58
2023/10/20 10:57:36;;;;;;;120.35;15.55;;;;;;;;;;4905009;29;20016;-57
2023/10/20 11:00:03;;;;;;;218.50;20.45;;;;;;;;;;4903940;29;20131;-57
2023/10/20 11:02:28;;;;;;;96.97;15.60;;;;;;;;;;4905454;29;20079;-58
2023/10/20 11:04:54;;;;;;;231.15;21.55;;;;;;;;;;4904004;29;20496;-58
2023/10/20 11:07:20;;;;;;;131.00;16.88;;;;;;;;;;4905286;28;20479;-58
2023/10/20 11:09:47;;;;;;;124.43;16.55;;;;;;;;;;4905482;29;20043;-57
2023/10/20 11:12:13;;;;;;;132.27;15.32;;;;;;;;;;4902308;29;20046;-57
2023/10/20 11:14:39;;;;;;;125.43;15.57;;;;;;;;;;4887429;29;20028;-58
2023/10/20 11:17:04;;;;;;;150.48;16.95;;;;;;;;;;4902091;29;20032;-58
2023/10/20 11:19:30;;;;;;;101.75;14.88;;;;;;;;;;4905237;29;20047;-57
2023/10/20 11:21:55;;;;;;;226.73;26.88;;;;;;;;;;4902306;29;20091;-58
2023/10/20 11:24:25;;;;;;;120.65;18.98;;;;;;;;;;4905190;29;20463;-58
2023/10/20 11:26:58;;;;;;;115.28;17.92;;;;;;;;;;4904869;29;20043;-58
2023/10/20 11:29:24;;;;;;;115.30;16.10;;;;;;;;;;4905189;29;20040;-57
2023/10/20 11:31:50;;;;;;;124.20;15.20;;;;;;;;;;4904890;29;20543;-58
2023/10/20 11:34:15;;;;;;;172.70;17.42;;;;;;;;;;4902558;29;20437;-58
2023/10/20 11:36:40;;;;;;;101.10;14.57;;;;;;;;;;4904153;29;20408;-58
2023/10/20 11:39:06;;;;;;;193.23;17.70;;;;;;;;;;4903024;29;20328;-59
2023/10/20 11:41:32;;;;;;;96.05;12.30;;;;;;;;;;4903986;29;20313;-57
2023/10/20 11:43:57;;;;;;;205.13;16.35;;;;;;;;;;4903438;29;20285;-58
2023/10/20 11:46:22;;;;;;;115.28;12.05;;;;;;;;;;4903989;29;20032;-57
2023/10/20 11:48:47;;;;;;;127.15;11.85;;;;;;;;;;4905338;29;20167;-57
2023/10/20 11:51:13;;;;;;;96.33;10.37;;;;;;;;;;4903291;29;20527;-58
2023/10/20 11:53:38;;;;;;;89.38;10.45;;;;;;;;;;4904082;29;20260;-57
2023/10/20 11:56:03;;;;;;;198.98;14.68;;;;;;;;;;4902547;29;20627;-57
2023/10/20 11:58:28;;;;;;;84.18;9.20;;;;;;;;;;4904001;29;20024;-59
2023/10/20 12:00:54;;;;;;;128.35;11.35;;;;;;;;;;4900760;29;20036;-59
2023/10/20 12:03:19;;;;;;;116.37;9.57;;;;;;;;;;4903796;29;20028;-57
2023/10/20 12:05:47;;;;;;;100.50;9.70;;;;;;;;;;4904659;29;20392;-58
2023/10/20 12:08:12;;;;;;;126.72;14.73;;;;;;;;;;4903447;29;20118;-58
2023/10/20 12:10:39;;;;;;;115.10;9.60;;;;;;;;;;4903911;29;20696;-58
2023/10/20 12:13:04;;;;;;;172.40;14.65;;;;;;;;;;4902627;29;20283;-58
2023/10/20 12:15:32;;;;;;;69.25;7.93;;;;;;;;;;4903659;29;20450;-58
2023/10/20 12:17:58;;;;;;;158.55;11.65;;;;;;;;;;4901833;29;20246;-58
2023/10/20 12:20:23;;;;;;;152.18;19.02;;;;;;;;;;4903554;29;20032;-58
2023/10/20 12:22:54;;;;;;;97.10;9.57;;;;;;;;;;4903800;29;20487;-58
2023/10/20 12:25:19;;;;;;;89.97;9.23;;;;;;;;;;4903476;29;20027;-59
2023/10/20 12:27:44;;;;;;;102.77;8.97;;;;;;;;;;4904428;29;20020;-58
2023/10/20 12:30:10;;;;;;;193.90;13.63;;;;;;;;;;4902375;29;20274;-58
2023/10/20 12:32:36;;;;;;;82.38;8.52;;;;;;;;;;4904133;29;20015;-59
2023/10/20 12:35:02;;;;;;;177.45;12.57;;;;;;;;;;4901120;29;20020;-58
2023/10/20 12:37:29;;;;;;;99.82;8.93;;;;;;;;;;4903024;28;20126;-59
2023/10/20 12:39:55;;;;;;;76.03;8.17;;;;;;;;;;4902900;29;20115;-58
2023/10/20 12:42:20;;;;;;;124.68;9.77;;;;;;;;;;4902300;29;20264;-59
2023/10/20 12:44:45;;;;;;;124.17;9.87;;;;;;;;;;4904952;29;20035;-59
2023/10/20 12:47:11;;;;;;;192.03;13.00;;;;;;;;;;4902580;29;20280;-59
2023/10/20 12:49:36;;;;;;;84.78;9.00;;;;;;;;;;4904581;29;20224;-59
2023/10/20 12:52:02;;;;;;;199.55;13.43;;;;;;;;;;4901520;29;20043;-58
2023/10/20 12:54:28;;;;;;;66.18;8.20;;;;;;;;;;4903743;29;20209;-59
2023/10/20 12:56:54;;;;;;;100.00;24.30;;;;;;;;;;4903212;29;20246;-59
2023/10/20 12:59:19;;;;;;;124.10;9.93;;;;;;;;;;4901889;29;20020;-58
2023/10/20 13:01:44;;;;;;;81.35;8.55;;;;;;;;;;4902584;29;20083;-59
2023/10/20 13:04:10;;;;;;;188.88;13.23;;;;;;;;;;4902881;29;20119;-58
2023/10/20 13:06:35;;;;;;;109.95;10.25;;;;;;;;;;4906629;29;20036;-58
2023/10/20 13:09:01;;;;;;;158.47;11.57;;;;;;;;;;4907118;29;20139;-59
2023/10/20 13:11:26;;;;;;;95.60;8.93;;;;;;;;;;4906491;29;20126;-58
2023/10/20 13:13:51;;;;;;;174.77;11.50;;;;;;;;;;4906594;29;20026;-58
2023/10/20 13:16:17;;;;;;;140.88;10.45;;;;;;;;;;4902748;29;20309;-58
2023/10/20 13:18:42;;;;;;;142.85;10.63;;;;;;;;;;4904251;29;20098;-59
2023/10/20 13:21:07;;;;;;;234.43;14.73;;;;;;;;;;4903116;29;20449;-58
2023/10/20 13:23:33;;;;;;;86.03;8.70;;;;;;;;;;4906551;29;20252;-58
2023/10/20 13:26:00;;;;;;;107.38;9.45;;;;;;;;;;4903742;29;20040;-59
2023/10/20 13:28:25;;;;;;;131.65;10.43;;;;;;;;;;4905074;29;20040;-59
2023/10/20 13:30:58;;;;;;;117.70;9.73;;;;;;;;;;4905191;29;20288;-58
2023/10/20 13:33:23;;;;;;;114.03;9.32;;;;;;;;;;4904430;29;20024;-57
2023/10/20 13:35:48;;;;;;;115.00;9.17;;;;;;;;;;4904445;29;20036;-58
2023/10/20 13:38:14;;;;;;;216.02;13.02;;;;;;;;;;4902224;29;20143;-59
2023/10/20 13:40:39;;;;;;;105.90;9.63;;;;;;;;;;4903575;29;20132;-57
2023/10/20 13:43:04;;;;;;;133.20;10.38;;;;;;;;;;4903341;29;20122;-58
2023/10/20 13:45:30;;;;;;;127.97;9.95;;;;;;;;;;4904072;29;20115;-58
2023/10/20 13:47:55;;;;;;;113.30;9.48;;;;;;;;;;4904190;29;20028;-59
2023/10/20 13:50:21;;;;;;;127.50;9.88;;;;;;;;;;4902733;29;20036;-57
2023/10/20 13:52:46;;;;;;;153.35;10.90;;;;;;;;;;4904423;29;20132;-58
2023/10/20 13:55:12;;;;;;;210.67;14.07;;;;;;;;;;4902661;29;20028;-58
2023/10/20 13:57:38;;;;;;;94.32;9.10;;;;;;;;;;4904747;29;20252;-59
2023/10/20 14:00:06;;;;;;;201.75;13.55;;;;;;;;;;4901830;29;20079;-58
2023/10/20 14:02:31;;;;;;;127.82;10.23;;;;;;;;;;4904397;29;20046;-59
2023/10/20 14:04:56;;;;;;;122.18;15.05;;;;;;;;;;4905077;29;20103;-59
2023/10/20 14:07:22;;;;;;;110.10;9.77;;;;;;;;;;4901360;29;20032;-58
2023/10/20 14:09:47;;;;;;;133.60;10.50;;;;;;;;;;4904385;29;20272;-58
2023/10/20 14:12:12;;;;;;;217.70;14.63;;;;;;;;;;4902065;29;20283;-58
2023/10/20 14:14:37;;;;;;;116.10;9.87;;;;;;;;;;4904340;29;20103;-57
2023/10/20 14:17:06;;;;;;;180.15;12.48;;;;;;;;;;4901813;29;20292;-58
2023/10/20 14:19:31;;;;;;;64.47;7.68;;;;;;;;;;4904163;29;20028;-58
2023/10/20 14:21:57;;;;;;;101.13;9.10;;;;;;;;;;4904541;29;20083;-58
2023/10/20 14:24:22;;;;;;;144.77;10.50;;;;;;;;;;4901275;29;20022;-58